カーブル の空港の天気 - METARとTAF

カーブル国際空港 ( OAKB / KBL ) - アフガニスタン カーブル
飛行場実況気象(Metar)
観測時間04/27 09:20 AFT (04/27 04:50 UTC)
風向・風速不定 1m/s
視程10km以上
天気現象
なし
気温22℃
湿度27%
気圧1021hPa
METAROAKB 270450Z VRB02KT CAVOK 22/02 Q1021 NOSIG RMK A3017 BLU BLU
過去の天気等 Google飛行場航空写真 Wunderground天気予報

過去48時間のMETAR

飛行場予報(TAF)
発表時間: 4/27 03:35 AFT (4/26 23:05 UTC)
予報対象時間: 27日4時 AFT ~ 28日4時 AFT
風向・風速不定 1m/s
視程10km以上
なし
27日5時 AFT ~ 27日9時 AFT に 確率 30% で一時的に
視程6,000m
27日13時 AFT ~ 27日15時 AFT に徐々に
風向・風速北北西 6m/s
全天の4割程度の雲 雲底高度 3,350m
27日15時 AFT ~ 27日17時 AFT に徐々に
風向・風速北 8m/s 瞬間風速 15m/s
視程8,000m
天気現象弱い高い風塵
27日19時 AFT ~ 27日21時 AFT に徐々に
風向・風速西北西 5m/s
27日22時 AFT ~ 28日24時 AFT に徐々に
風向・風速不定 1m/s
少しの雲 雲底高度 3,050m
TAF OAKB 262305Z 2700/2724 VRB02KT CAVOK
PROB30 TEMPO 2701/2705 6000
BECMG 2709/2711 34012KT SCT110
BECMG 2711/2713 01015G30KT 8000 -BLDU
BECMG 2715/2717 30010KT
BECMG 2718/2720 VRB02KT FEW100